Time;durP1;ratioP1;P1;durP2;ratioP2;P2;SDS_P1;SDS_P2;PMS_P1;PMS_P2;Temp;Humidity;BMP_temperature;BMP_pressure;BME280_temperature;BME280_humidity;BME280_pressure;Samples;Min_cycle;Max_cycle;Signal;HPM_P1;HPM_P2
2022/10/06 00:00:44;;;;;;;6.20;1.42;;;13.00;99.90;;;;;;5059596;28;20498;-57
2022/10/06 00:03:10;;;;;;;10.48;1.50;;;12.90;99.90;;;;;;5057644;28;20041;-57
2022/10/06 00:05:35;;;;;;;10.02;1.60;;;12.90;99.90;;;;;;5058968;28;20596;-57
2022/10/06 00:08:02;;;;;;;11.15;2.25;;;12.90;99.90;;;;;;5057736;28;20046;-57
2022/10/06 00:10:28;;;;;;;12.57;2.28;;;13.00;99.90;;;;;;5058813;28;20073;-57
2022/10/06 00:12:54;;;;;;;6.65;1.30;;;12.90;99.90;;;;;;5058481;28;20037;-56
2022/10/06 00:15:23;;;;;;;11.05;1.60;;;13.00;99.90;;;;;;5058591;28;20139;-57
2022/10/06 00:17:49;;;;;;;9.23;1.50;;;12.80;99.90;;;;;;5058808;28;20061;-57
2022/10/06 00:20:15;;;;;;;7.28;1.38;;;12.80;99.90;;;;;;5059603;28;20060;-57
2022/10/06 00:22:43;;;;;;;11.43;1.77;;;12.90;99.90;;;;;;5062123;28;20048;-57
2022/10/06 00:25:11;;;;;;;13.60;1.55;;;12.90;99.90;;;;;;5061744;28;20049;-57
2022/10/06 00:27:40;;;;;;;12.77;1.65;;;12.90;99.90;;;;;;5060934;28;20040;-57
2022/10/06 00:30:10;;;;;;;6.88;1.40;;;12.90;99.90;;;;;;5061910;28;20064;-57
2022/10/06 00:32:36;;;;;;;14.93;2.15;;;12.90;99.90;;;;;;5061901;28;20067;-57
2022/10/06 00:35:02;;;;;;;9.77;1.80;;;12.90;99.90;;;;;;5062344;28;20063;-56
2022/10/06 00:37:32;;;;;;;11.65;2.00;;;13.00;99.90;;;;;;5060976;28;20049;-57
2022/10/06 00:39:58;;;;;;;11.52;1.83;;;13.00;99.90;;;;;;5069541;28;20070;-57
2022/10/06 00:42:26;;;;;;;11.43;2.13;;;12.90;99.90;;;;;;5081546;28;20036;-57
2022/10/06 00:44:52;;;;;;;10.38;2.00;;;12.80;99.90;;;;;;5081896;28;20093;-57
2022/10/06 00:47:21;;;;;;;13.20;2.17;;;12.80;99.90;;;;;;5080090;28;20119;-56
2022/10/06 00:49:47;;;;;;;10.27;1.77;;;12.80;99.90;;;;;;5081497;28;20068;-57
2022/10/06 00:52:17;;;;;;;11.60;1.60;;;12.90;99.90;;;;;;5082116;28;20044;-56
2022/10/06 00:54:43;;;;;;;11.73;2.03;;;12.70;99.90;;;;;;5081176;28;20087;-57
2022/10/06 00:57:10;;;;;;;12.80;2.58;;;12.70;99.90;;;;;;5081914;28;20044;-58
2022/10/06 00:59:37;;;;;;;11.35;1.73;;;12.60;99.90;;;;;;5071706;28;20057;-57
2022/10/06 01:02:08;;;;;;;14.93;2.53;;;12.70;99.90;;;;;;5061811;28;20037;-57
2022/10/06 01:04:37;;;;;;;14.57;1.95;;;12.60;99.90;;;;;;5061184;28;20052;-57
2022/10/06 01:07:03;;;;;;;10.63;1.60;;;12.60;99.90;;;;;;5060920;28;20045;-58
2022/10/06 01:09:30;;;;;;;10.07;1.85;;;12.50;99.90;;;;;;5061463;28;20063;-57
2022/10/06 01:12:01;;;;;;;14.50;2.30;;;12.50;99.90;;;;;;5060837;28;20090;-57
2022/10/06 01:14:27;;;;;;;9.38;1.98;;;12.50;99.90;;;;;;5061639;28;20048;-57
2022/10/06 01:16:59;;;;;;;9.18;1.98;;;12.50;99.90;;;;;;5060337;28;20052;-57
2022/10/06 01:19:30;;;;;;;11.43;2.25;;;12.50;99.90;;;;;;5061392;28;20449;-57
2022/10/06 01:21:58;;;;;;;9.55;1.75;;;12.50;99.90;;;;;;5059878;28;20700;-57
2022/10/06 01:24:24;;;;;;;10.75;2.15;;;12.50;99.90;;;;;;5060326;28;20116;-56
2022/10/06 01:26:51;;;;;;;14.10;1.85;;;12.40;99.90;;;;;;5061293;28;20103;-57
2022/10/06 01:29:18;;;;;;;13.50;2.00;;;12.50;99.90;;;;;;5060427;28;20043;-56
2022/10/06 01:31:44;;;;;;;11.57;2.10;;;12.40;99.90;;;;;;5059449;28;20045;-57
2022/10/06 01:34:09;;;;;;;13.88;2.47;;;12.40;99.90;;;;;;5060465;28;20124;-57
2022/10/06 01:36:35;;;;;;;11.32;1.92;;;12.30;99.90;;;;;;5060657;28;20096;-57
2022/10/06 01:39:01;;;;;;;10.68;2.20;;;12.30;99.90;;;;;;5060483;28;20440;-56
2022/10/06 01:41:26;;;;;;;8.85;1.52;;;12.40;99.90;;;;;;5079637;28;20123;-58
2022/10/06 01:43:52;;;;;;;13.93;2.42;;;12.30;99.90;;;;;;5080747;28;20033;-57
2022/10/06 01:46:18;;;;;;;12.25;2.08;;;12.40;99.90;;;;;;5079908;28;20054;-57
2022/10/06 01:48:43;;;;;;;10.65;1.80;;;12.40;99.90;;;;;;5080717;28;20121;-57
2022/10/06 01:51:14;;;;;;;9.02;1.80;;;12.30;99.90;;;;;;5080186;28;20044;-57
2022/10/06 01:53:40;;;;;;;11.00;2.30;;;12.50;99.90;;;;;;5079271;28;20040;-57
2022/10/06 01:56:07;;;;;;;10.30;1.58;;;12.30;99.90;;;;;;5078980;28;20103;-57
2022/10/06 01:58:33;;;;;;;12.55;2.83;;;12.20;99.90;;;;;;5078709;28;20047;-56
2022/10/06 02:01:06;;;;;;;14.85;2.75;;;12.20;99.90;;;;;;5060825;28;20380;-57
2022/10/06 02:03:39;;;;;;;11.70;2.10;;;12.20;99.90;;;;;;5059822;28;20155;-57
2022/10/06 02:06:06;;;;;;;11.65;1.58;;;12.20;99.90;;;;;;5060645;28;20060;-57
2022/10/06 02:08:32;;;;;;;12.73;2.35;;;12.10;99.90;;;;;;5060027;28;20064;-57
2022/10/06 02:11:02;;;;;;;11.77;1.65;;;12.10;99.90;;;;;;5059662;28;20048;-57
2022/10/06 02:13:28;;;;;;;12.82;1.90;;;12.10;99.90;;;;;;5060425;28;20068;-57
2022/10/06 02:15:56;;;;;;;12.05;1.83;;;12.10;99.90;;;;;;5057942;28;20049;-57
2022/10/06 02:18:21;;;;;;;12.35;1.60;;;12.10;99.90;;;;;;5060463;28;20044;-57
2022/10/06 02:20:47;;;;;;;11.30;1.95;;;12.10;99.90;;;;;;5059736;28;20490;-57
2022/10/06 02:23:13;;;;;;;14.20;2.38;;;12.10;99.90;;;;;;5060165;28;20056;-57
2022/10/06 02:25:38;;;;;;;12.88;1.92;;;12.10;99.90;;;;;;5059682;28;20151;-56
2022/10/06 02:28:04;;;;;;;11.43;2.00;;;12.10;99.90;;;;;;5059963;28;20080;-57
2022/10/06 02:30:30;;;;;;;14.85;2.28;;;12.20;99.90;;;;;;5058743;28;20118;-57
2022/10/06 02:32:55;;;;;;;17.65;2.55;;;12.10;99.90;;;;;;5059115;28;20045;-57
2022/10/06 02:35:21;;;;;;;10.18;2.05;;;12.10;99.90;;;;;;5060195;28;20124;-58
2022/10/06 02:37:48;;;;;;;11.77;1.75;;;12.00;99.90;;;;;;5059243;28;20048;-57
2022/10/06 02:40:15;;;;;;;10.45;1.92;;;12.00;99.90;;;;;;5068208;28;20090;-58
2022/10/06 02:42:41;;;;;;;11.20;1.80;;;11.90;99.90;;;;;;5078596;28;20040;-58
2022/10/06 02:45:07;;;;;;;14.60;1.90;;;11.90;99.90;;;;;;5079844;28;20045;-57
2022/10/06 02:47:34;;;;;;;16.13;2.20;;;11.90;99.90;;;;;;5079655;28;20613;-57
2022/10/06 02:50:06;;;;;;;16.23;2.38;;;11.90;99.90;;;;;;5079146;28;20040;-58
2022/10/06 02:52:37;;;;;;;15.93;1.98;;;11.90;99.90;;;;;;5079573;28;20100;-57
2022/10/06 02:55:04;;;;;;;14.77;2.05;;;11.90;99.90;;;;;;5079039;28;20036;-57
2022/10/06 02:57:29;;;;;;;11.38;2.20;;;11.90;99.90;;;;;;5079352;28;20048;-57
2022/10/06 02:59:55;;;;;;;11.82;1.80;;;11.90;99.90;;;;;;5066776;28;20041;-57
2022/10/06 03:02:21;;;;;;;15.40;2.42;;;11.80;99.90;;;;;;5059226;28;20524;-57
2022/10/06 03:04:47;;;;;;;16.33;2.00;;;11.90;99.90;;;;;;5059143;28;20045;-58
2022/10/06 03:07:13;;;;;;;10.48;1.95;;;11.80;99.90;;;;;;5058335;28;20052;-58
2022/10/06 03:09:39;;;;;;;17.08;2.20;;;11.80;99.90;;;;;;5059153;28;20045;-58
2022/10/06 03:12:04;;;;;;;13.88;2.10;;;11.80;99.90;;;;;;5058698;28;20611;-55
2022/10/06 03:14:30;;;;;;;12.25;2.40;;;11.70;99.90;;;;;;5059285;28;20124;-57
2022/10/06 03:16:56;;;;;;;16.15;1.90;;;11.80;99.90;;;;;;5059204;28;20069;-58
2022/10/06 03:19:21;;;;;;;13.73;1.85;;;11.70;99.90;;;;;;5059352;28;20044;-58
2022/10/06 03:21:47;;;;;;;10.35;2.05;;;11.70;99.90;;;;;;5058999;28;20043;-57
2022/10/06 03:24:13;;;;;;;15.25;3.03;;;11.80;99.90;;;;;;5058644;28;20095;-58
2022/10/06 03:26:42;;;;;;;9.55;1.70;;;11.70;99.90;;;;;;5058976;28;20424;-57
2022/10/06 03:29:08;;;;;;;16.45;2.70;;;11.70;99.90;;;;;;5064825;28;20036;-58
2022/10/06 03:31:34;;;;;;;8.18;1.88;;;11.70;99.90;;;;;;5078237;28;20032;-57
2022/10/06 03:33:59;;;;;;;12.60;3.00;;;11.70;99.90;;;;;;5078266;28;20128;-57
2022/10/06 03:36:28;;;;;;;13.77;2.03;;;11.60;99.90;;;;;;5078938;28;20049;-58
2022/10/06 03:38:54;;;;;;;14.98;1.95;;;11.60;99.90;;;;;;5078643;28;20045;-57
2022/10/06 03:41:23;;;;;;;11.05;1.75;;;11.60;99.90;;;;;;5078090;28;20033;-58
2022/10/06 03:43:50;;;;;;;11.60;2.10;;;11.70;99.90;;;;;;5078986;28;20040;-58
2022/10/06 03:46:18;;;;;;;10.18;2.03;;;11.60;99.90;;;;;;5078182;28;20093;-58
2022/10/06 03:48:45;;;;;;;12.07;2.40;;;11.60;99.90;;;;;;5079087;28;20282;-57
2022/10/06 03:51:14;;;;;;;11.15;2.30;;;11.60;99.90;;;;;;5078547;28;20044;-58
2022/10/06 03:53:42;;;;;;;14.65;2.28;;;11.70;99.90;;;;;;5079839;28;20036;-58
2022/10/06 03:56:22;;;;;;;12.38;2.45;;;11.80;99.90;;;;;;5082660;28;20040;-57
2022/10/06 03:58:56;;;;;;;11.15;1.70;;;11.80;99.90;;;;;;5077498;28;20048;-57
2022/10/06 04:01:25;;;;;;;13.07;2.10;;;11.90;99.90;;;;;;5062556;28;20048;-57
2022/10/06 04:03:53;;;;;;;11.77;2.00;;;11.90;99.90;;;;;;5060791;28;20111;-57
2022/10/06 04:06:19;;;;;;;10.43;1.95;;;11.80;99.90;;;;;;5062584;28;20098;-57
2022/10/06 04:08:47;;;;;;;12.25;1.73;;;11.90;99.90;;;;;;5062127;28;20044;-57
2022/10/06 04:11:21;;;;;;;15.63;1.98;;;11.80;99.90;;;;;;5061729;28;20416;-57
2022/10/06 04:13:51;;;;;;;10.95;1.70;;;11.80;99.90;;;;;;5064647;28;20427;-58
2022/10/06 04:16:19;;;;;;;11.73;2.00;;;11.70;99.90;;;;;;5081797;28;20032;-58
2022/10/06 04:18:48;;;;;;;10.95;2.10;;;11.80;99.90;;;;;;5082225;28;20335;-57
2022/10/06 04:21:14;;;;;;;14.30;2.22;;;11.70;99.90;;;;;;5081846;28;20042;-57
2022/10/06 04:23:40;;;;;;;13.18;2.90;;;11.70;99.90;;;;;;5082026;28;20517;-58
2022/10/06 04:26:10;;;;;;;20.38;2.85;;;11.70;99.90;;;;;;5082195;28;20094;-58
2022/10/06 04:28:37;;;;;;;12.52;2.03;;;11.80;99.90;;;;;;5079958;28;20465;-57
2022/10/06 04:31:15;;;;;;;12.18;1.70;;;11.80;99.90;;;;;;5081957;28;20512;-57
2022/10/06 04:33:42;;;;;;;13.52;2.65;;;11.80;99.90;;;;;;5081384;28;20070;-57
2022/10/06 04:36:09;;;;;;;11.27;2.60;;;11.80;99.90;;;;;;5081974;28;20055;-57
2022/10/06 04:38:35;;;;;;;11.25;1.80;;;11.80;99.90;;;;;;5081340;28;20535;-57
2022/10/06 04:41:10;;;;;;;16.58;2.42;;;11.70;99.90;;;;;;5081269;28;20048;-57
2022/10/06 04:43:36;;;;;;;13.50;2.03;;;11.70;99.90;;;;;;5082264;28;20080;-58
2022/10/06 04:46:02;;;;;;;12.35;1.50;;;11.70;99.90;;;;;;5081348;28;20041;-57
2022/10/06 04:48:29;;;;;;;11.15;2.38;;;11.70;99.90;;;;;;5081819;28;20043;-57
2022/10/06 04:51:03;;;;;;;8.48;1.70;;;11.70;99.90;;;;;;5079879;28;20056;-57
2022/10/06 04:53:30;;;;;;;11.80;2.03;;;11.70;99.90;;;;;;5081560;28;20084;-57
2022/10/06 04:56:05;;;;;;;12.85;1.88;;;11.60;99.90;;;;;;5081481;28;20047;-57
2022/10/06 04:58:36;;;;;;;10.60;1.90;;;11.70;99.90;;;;;;5080104;28;20044;-58
2022/10/06 05:01:03;;;;;;;12.80;2.00;;;11.70;99.90;;;;;;5061651;28;20044;-58
2022/10/06 05:03:30;;;;;;;10.32;1.98;;;11.60;99.90;;;;;;5060882;28;20124;-57
2022/10/06 05:06:08;;;;;;;9.30;1.60;;;11.60;99.90;;;;;;5060807;28;20049;-58
2022/10/06 05:08:34;;;;;;;16.27;2.30;;;11.50;99.90;;;;;;5061122;28;20077;-57
2022/10/06 05:11:05;;;;;;;13.70;2.22;;;11.60;99.90;;;;;;5060880;28;20045;-57
2022/10/06 05:13:31;;;;;;;10.23;1.77;;;11.50;99.90;;;;;;5060269;28;20056;-56
2022/10/06 05:16:01;;;;;;;10.80;1.60;;;11.50;99.90;;;;;;5059246;28;20056;-57
2022/10/06 05:18:28;;;;;;;14.13;1.73;;;11.50;99.90;;;;;;5060019;28;20040;-57
2022/10/06 05:20:56;;;;;;;10.90;1.90;;;11.50;99.90;;;;;;5060821;28;20397;-56
2022/10/06 05:23:22;;;;;;;19.98;2.60;;;11.40;99.90;;;;;;5061153;28;20053;-56
2022/10/06 05:25:52;;;;;;;10.10;1.83;;;11.50;99.90;;;;;;5060828;28;20040;-57
2022/10/06 05:28:18;;;;;;;15.02;2.70;;;12.10;99.90;;;;;;5060397;28;20511;-58
2022/10/06 05:31:13;;;;;;;16.85;2.90;;;11.60;99.90;;;;;;5061172;28;20045;-57
2022/10/06 05:33:40;;;;;;;8.77;1.70;;;11.50;99.90;;;;;;5059838;28;20087;-57
2022/10/06 05:36:09;;;;;;;12.80;2.47;;;11.50;99.90;;;;;;5061024;28;20049;-57
2022/10/06 05:38:35;;;;;;;10.40;2.00;;;11.50;99.90;;;;;;5060556;28;20044;-57
2022/10/06 05:41:02;;;;;;;14.10;2.92;;;11.50;99.90;;;;;;5077037;28;20045;-57
2022/10/06 05:43:28;;;;;;;10.98;2.20;;;11.50;99.90;;;;;;5080916;28;20033;-56
2022/10/06 05:45:57;;;;;;;13.80;2.22;;;11.50;99.90;;;;;;5079949;28;20048;-57
2022/10/06 05:48:23;;;;;;;16.08;2.40;;;11.50;99.90;;;;;;5076774;28;20524;-55
2022/10/06 05:51:00;;;;;;;11.27;2.35;;;11.40;99.90;;;;;;5074774;28;20058;-56
2022/10/06 05:53:30;;;;;;;8.40;2.00;;;11.30;99.90;;;;;;5075578;28;20064;-57
2022/10/06 05:56:06;;;;;;;10.82;1.88;;;11.40;99.90;;;;;;5076761;28;20048;-57
2022/10/06 05:58:34;;;;;;;12.40;2.15;;;11.40;99.90;;;;;;5075068;28;20063;-56
2022/10/06 06:01:09;;;;;;;11.88;2.83;;;11.30;99.90;;;;;;5056565;28;20041;-57
2022/10/06 06:03:35;;;;;;;10.75;1.70;;;11.30;99.90;;;;;;5055883;28;20693;-57
2022/10/06 06:06:01;;;;;;;12.52;2.15;;;11.20;99.90;;;;;;5056452;28;20551;-56
2022/10/06 06:08:26;;;;;;;13.32;1.83;;;11.30;99.90;;;;;;5063726;28;20048;-57
2022/10/06 06:10:52;;;;;;;13.82;2.70;;;11.30;99.90;;;;;;5075857;28;20048;-56
2022/10/06 06:13:21;;;;;;;10.50;1.95;;;11.10;99.90;;;;;;5076600;28;20100;-56
2022/10/06 06:15:59;;;;;;;10.10;2.38;;;11.20;99.90;;;;;;5075286;28;20052;-56
2022/10/06 06:18:26;;;;;;;11.32;1.88;;;11.20;99.90;;;;;;5075268;28;20123;-56
2022/10/06 06:21:00;;;;;;;12.35;2.17;;;11.20;99.90;;;;;;5075637;28;20041;-57
2022/10/06 06:23:37;;;;;;;12.43;2.75;;;11.30;99.90;;;;;;5075914;28;20520;-57
2022/10/06 06:26:06;;;;;;;16.63;3.88;;;11.40;99.90;;;;;;5076173;28;20078;-57
2022/10/06 06:28:32;;;;;;;11.73;1.70;;;11.40;99.90;;;;;;5075082;28;20040;-56
2022/10/06 06:31:25;;;;;;;13.18;2.00;;;11.40;99.90;;;;;;5075782;28;20041;-57
2022/10/06 06:33:52;;;;;;;14.52;2.13;;;11.40;99.90;;;;;;5075138;28;20546;-56
2022/10/06 06:36:27;;;;;;;10.45;1.83;;;11.30;99.90;;;;;;5075681;28;20186;-57
2022/10/06 06:38:56;;;;;;;11.30;2.42;;;11.40;99.90;;;;;;5075990;28;20051;-56
2022/10/06 06:41:31;;;;;;;12.45;2.08;;;11.40;99.90;;;;;;5074874;28;20115;-57
2022/10/06 06:43:58;;;;;;;11.52;1.83;;;11.40;99.90;;;;;;5074593;28;20082;-57
2022/10/06 06:46:26;;;;;;;13.52;2.17;;;11.60;99.90;;;;;;5075061;28;20460;-57
2022/10/06 06:48:55;;;;;;;15.70;2.42;;;11.50;99.90;;;;;;5074539;28;20037;-57
2022/10/06 06:51:22;;;;;;;12.48;2.20;;;11.70;99.90;;;;;;5075078;28;20052;-57
2022/10/06 06:53:52;;;;;;;10.85;1.80;;;11.60;99.90;;;;;;5075444;28;20052;-57
2022/10/06 06:56:20;;;;;;;14.63;2.25;;;11.60;99.90;;;;;;5075859;28;20119;-56
2022/10/06 06:58:46;;;;;;;11.60;2.20;;;11.80;99.90;;;;;;5071905;28;20087;-57
2022/10/06 07:01:17;;;;;;;17.17;2.45;;;11.80;99.90;;;;;;5055590;28;20037;-57
2022/10/06 07:03:47;;;;;;;16.83;2.40;;;11.90;99.90;;;;;;5055035;28;20068;-57
2022/10/06 07:06:15;;;;;;;13.82;2.17;;;11.80;99.90;;;;;;5055706;28;20045;-58
2022/10/06 07:08:43;;;;;;;14.10;2.35;;;11.90;99.90;;;;;;5054962;28;20079;-57
2022/10/06 07:11:30;;;;;;;13.18;2.15;;;12.00;99.90;;;;;;5053948;28;20049;-56
2022/10/06 07:14:00;;;;;;;15.52;1.85;;;12.00;99.90;;;;;;5054705;28;20465;-57
2022/10/06 07:27:30;;;;;;;12.50;2.10;;;12.30;99.90;;;;;;5055106;28;20049;-57
2022/10/06 07:29:55;;;;;;;9.63;1.58;;;12.40;99.90;;;;;;5060654;28;20049;-57
2022/10/06 07:32:23;;;;;;;14.27;2.33;;;12.50;99.90;;;;;;5079158;28;20095;-57
2022/10/06 07:34:49;;;;;;;13.23;1.85;;;12.50;99.90;;;;;;5079749;28;20060;-57
2022/10/06 07:37:16;;;;;;;11.75;2.13;;;12.60;99.90;;;;;;5078165;28;20045;-57
2022/10/06 07:39:43;;;;;;;13.25;2.15;;;12.50;99.90;;;;;;5079116;28;20047;-57
2022/10/06 07:42:14;;;;;;;10.75;1.95;;;12.60;99.90;;;;;;5077278;28;20059;-57
2022/10/06 07:45:36;;;;;;;14.55;2.78;;;12.80;99.90;;;;;;5079556;28;20478;-57
2022/10/06 07:47:29;;;;;;;14.18;2.78;;;12.70;99.90;;;;;;5078420;28;20064;-57
2022/10/06 07:49:57;;;;;;;11.88;2.03;;;12.90;99.90;;;;;;5078301;28;20052;-56
2022/10/06 07:52:23;;;;;;;14.10;2.00;;;12.80;99.90;;;;;;5079213;28;20063;-57
2022/10/06 07:54:49;;;;;;;12.75;2.20;;;12.90;99.90;;;;;;5078141;28;20045;-56
2022/10/06 07:57:15;;;;;;;14.23;2.00;;;13.00;99.90;;;;;;5079085;28;20079;-57
2022/10/06 07:59:40;;;;;;;12.50;1.77;;;13.00;99.90;;;;;;5068023;28;20394;-57
2022/10/06 08:02:06;;;;;;;14.00;2.08;;;13.10;99.90;;;;;;5058762;28;20052;-57
2022/10/06 08:04:32;;;;;;;14.05;2.13;;;13.00;99.90;;;;;;5058388;28;20084;-57
2022/10/06 08:06:58;;;;;;;9.10;1.85;;;13.30;99.90;;;;;;5057606;28;20049;-57
2022/10/06 08:09:23;;;;;;;16.25;2.10;;;13.20;99.90;;;;;;5057385;28;20044;-57
2022/10/06 08:11:49;;;;;;;10.55;2.03;;;13.20;99.90;;;;;;5056362;28;20060;-57
2022/10/06 08:14:15;;;;;;;13.07;1.70;;;13.30;99.90;;;;;;5058826;28;20067;-57
2022/10/06 08:16:40;;;;;;;12.68;1.90;;;13.30;99.90;;;;;;5057861;28;20045;-57
2022/10/06 08:19:06;;;;;;;15.00;2.42;;;13.40;99.90;;;;;;5058213;28;20053;-56
2022/10/06 08:21:36;;;;;;;15.18;2.00;;;13.50;99.90;;;;;;5057375;28;20064;-56
2022/10/06 08:24:02;;;;;;;13.13;1.83;;;13.50;99.90;;;;;;5057196;28;20052;-57
2022/10/06 08:26:29;;;;;;;14.05;2.35;;;13.60;99.90;;;;;;5058050;28;20045;-58
2022/10/06 08:28:57;;;;;;;11.60;2.08;;;13.60;99.90;;;;;;5056813;28;20067;-57
2022/10/06 08:31:23;;;;;;;10.35;1.83;;;13.60;99.90;;;;;;5058216;28;20346;-57
2022/10/06 08:33:53;;;;;;;14.10;3.00;;;13.60;99.90;;;;;;5061345;28;20052;-57
2022/10/06 08:36:19;;;;;;;12.85;2.10;;;13.80;99.90;;;;;;5043282;28;20045;-57
2022/10/06 08:38:48;;;;;;;13.80;1.90;;;13.80;99.90;;;;;;5060225;28;20040;-57
2022/10/06 08:41:17;;;;;;;12.98;1.80;;;13.90;99.90;;;;;;5078446;28;20047;-57
2022/10/06 08:44:03;;;;;;;10.60;2.08;;;13.90;99.90;;;;;;5080824;28;20078;-57
2022/10/06 08:46:56;;;;;;;14.15;2.05;;;13.90;99.90;;;;;;5081322;28;20044;-56
2022/10/06 08:49:24;;;;;;;14.35;1.90;;;13.90;99.90;;;;;;5076169;28;20056;-56
2022/10/06 08:52:03;;;;;;;17.45;2.25;;;14.00;99.90;;;;;;5081905;28;20458;-57
2022/10/06 08:54:50;;;;;;;10.65;2.08;;;14.00;99.90;;;;;;5081233;28;20067;-57
2022/10/06 08:57:36;;;;;;;10.85;1.70;;;14.00;99.90;;;;;;5081640;28;20066;-57
2022/10/06 09:00:07;;;;;;;10.32;1.63;;;14.20;99.90;;;;;;5068171;28;20041;-57
2022/10/06 09:02:40;;;;;;;11.93;2.13;;;14.10;99.90;;;;;;5061185;28;20056;-57
2022/10/06 09:05:10;;;;;;;10.30;2.45;;;14.10;99.90;;;;;;5061551;28;20080;-57
2022/10/06 09:07:58;;;;;;;13.52;2.00;;;14.20;99.90;;;;;;5060730;28;20055;-57
2022/10/06 09:10:38;;;;;;;11.25;2.05;;;14.20;99.90;;;;;;5061285;28;20060;-57
2022/10/06 09:13:19;;;;;;;13.05;1.90;;;14.20;99.90;;;;;;5061098;28;20075;-56
2022/10/06 09:16:00;;;;;;;15.00;2.23;;;14.10;99.90;;;;;;5060708;28;20041;-56
2022/10/06 09:19:05;;;;;;;12.45;2.10;;;14.00;99.90;;;;;;5061443;28;20045;-57
2022/10/06 09:21:40;;;;;;;13.57;1.73;;;14.00;99.90;;;;;;5061176;28;20047;-57
2022/10/06 09:24:15;;;;;;;13.82;2.58;;;14.00;99.90;;;;;;5060641;28;20052;-56
2022/10/06 09:26:47;;;;;;;12.18;2.22;;;14.10;99.90;;;;;;5061297;28;20041;-57
2022/10/06 09:29:13;;;;;;;15.05;1.90;;;14.10;99.90;;;;;;5060596;28;20037;-56
2022/10/06 09:31:41;;;;;;;12.00;2.08;;;14.10;99.90;;;;;;5061062;28;20461;-56
2022/10/06 09:34:36;;;;;;;11.23;2.00;;;14.30;99.90;;;;;;5060682;28;20060;-56
2022/10/06 09:37:12;;;;;;;13.90;2.25;;;14.40;99.90;;;;;;5060341;28;20103;-56
2022/10/06 09:39:40;;;;;;;12.45;2.10;;;14.50;99.90;;;;;;5065833;28;20131;-57
2022/10/06 09:42:09;;;;;;;13.38;1.98;;;14.50;99.90;;;;;;5080180;28;20048;-56
2022/10/06 09:44:51;;;;;;;10.60;2.08;;;14.50;99.90;;;;;;5081058;28;20040;-57
2022/10/06 09:47:32;;;;;;;11.13;2.35;;;14.50;99.90;;;;;;5079413;28;20036;-58
2022/10/06 09:50:20;;;;;;;13.63;1.70;;;14.60;99.90;;;;;;5079926;28;20044;-57
2022/10/06 09:53:02;;;;;;;9.65;1.67;;;14.50;99.90;;;;;;5080459;28;20162;-57
2022/10/06 09:55:36;;;;;;;13.30;1.85;;;14.60;99.90;;;;;;5080248;28;20070;-57
2022/10/06 09:58:14;;;;;;;11.55;1.90;;;14.60;99.90;;;;;;5080330;28;20499;-57
2022/10/06 10:01:02;;;;;;;12.55;1.80;;;14.70;99.90;;;;;;5060567;28;20101;-57
2022/10/06 10:03:50;;;;;;;12.13;2.05;;;14.80;99.90;;;;;;5055942;28;20048;-57
2022/10/06 10:06:33;;;;;;;10.73;1.60;;;15.00;99.90;;;;;;5060488;28;20060;-57
2022/10/06 10:09:20;;;;;;;10.90;2.28;;;15.10;99.90;;;;;;5060433;28;20365;-57
2022/10/06 10:12:23;;;;;;;12.32;1.55;;;15.00;99.90;;;;;;5059714;28;20717;-57
2022/10/06 10:14:49;;;;;;;12.23;1.70;;;14.90;99.90;;;;;;5059992;28;20049;-57
2022/10/06 10:17:48;;;;;;;13.68;1.60;;;14.90;99.90;;;;;;5059837;28;20064;-56
2022/10/06 10:20:50;;;;;;;8.88;1.58;;;14.90;99.90;;;;;;5059706;28;20056;-56
2022/10/06 10:23:34;;;;;;;9.48;1.80;;;14.90;99.90;;;;;;5060097;28;20106;-57
2022/10/06 10:26:27;;;;;;;11.70;1.60;;;15.10;99.90;;;;;;5060030;28;20037;-57
2022/10/06 10:29:16;;;;;;;8.05;1.50;;;15.30;99.90;;;;;;5059117;28;20052;-57
2022/10/06 10:32:16;;;;;;;7.18;1.38;;;15.30;99.90;;;;;;5060215;28;20068;-57
2022/10/06 10:35:00;;;;;;;13.32;1.77;;;15.10;99.90;;;;;;5047817;28;20176;-57
2022/10/06 10:37:29;;;;;;;8.48;1.35;;;15.20;99.90;;;;;;5058978;28;20049;-57
2022/10/06 10:40:19;;;;;;;12.23;1.70;;;15.30;99.90;;;;;;5067352;28;20071;-57
2022/10/06 10:43:09;;;;;;;10.50;1.40;;;15.30;99.90;;;;;;5079204;28;20058;-56
2022/10/06 10:45:41;;;;;;;11.15;1.50;;;15.40;99.90;;;;;;5078838;28;20108;-58
2022/10/06 10:48:15;;;;;;;8.02;1.58;;;15.40;99.90;;;;;;5079517;28;20047;-57
2022/10/06 10:51:10;;;;;;;10.45;1.95;;;15.50;99.90;;;;;;5079061;28;20048;-57
2022/10/06 10:54:03;;;;;;;7.97;1.30;;;15.50;99.90;;;;;;5079163;28;20059;-57
2022/10/06 10:56:31;;;;;;;12.88;2.30;;;15.50;99.90;;;;;;5077812;28;20045;-57
2022/10/06 10:59:15;;;;;;;7.88;1.27;;;15.60;99.90;;;;;;5074670;28;20120;-57
2022/10/06 11:01:53;;;;;;;7.60;1.45;;;15.50;99.90;;;;;;5059558;28;20071;-58
2022/10/06 11:04:19;;;;;;;7.03;1.63;;;15.70;99.90;;;;;;5058336;28;20055;-57
2022/10/06 11:07:05;;;;;;;8.98;1.30;;;15.70;99.90;;;;;;5059048;28;20049;-57
2022/10/06 11:09:44;;;;;;;6.38;1.25;;;15.80;99.90;;;;;;5059392;28;20048;-57
2022/10/06 11:12:26;;;;;;;9.77;2.75;;;15.90;99.90;;;;;;5057375;28;20063;-57
2022/10/06 11:14:52;;;;;;;;;;;15.90;99.90;;;;;;5059955;28;20068;-57
2022/10/06 11:17:24;;;;;;;6.80;1.30;;;15.80;99.90;;;;;;5058871;28;19921;-57
2022/10/06 11:20:07;;;;;;;8.10;1.27;;;15.80;99.90;;;;;;5058354;28;20052;-57
2022/10/06 11:22:33;;;;;;;8.23;1.30;;;15.80;99.90;;;;;;5059070;28;20067;-57
2022/10/06 11:25:32;;;;;;;7.45;1.55;;;15.80;99.90;;;;;;5058808;28;20045;-58
2022/10/06 11:28:12;;;;;;;9.10;1.48;;;15.80;99.90;;;;;;5039717;28;20068;-57
2022/10/06 11:30:53;;;;;;;6.95;1.40;;;15.80;99.90;;;;;;5059435;28;20048;-57
2022/10/06 11:33:31;;;;;;;8.38;2.10;;;15.90;99.90;;;;;;5058716;28;20045;-56
2022/10/06 11:35:57;;;;;;;9.00;1.42;;;15.90;99.90;;;;;;5059337;28;20429;-57
2022/10/06 11:38:39;;;;;;;8.80;1.50;;;16.00;99.90;;;;;;5058534;28;20101;-57
2022/10/06 11:41:21;;;;;;;9.25;2.03;;;16.00;99.90;;;;;;5075582;28;20040;-57
2022/10/06 11:44:12;;;;;;;12.52;1.42;;;16.10;99.90;;;;;;5077644;28;20044;-58
2022/10/06 11:46:48;;;;;;;5.97;1.30;;;16.20;99.90;;;;;;5078580;28;20048;-58
2022/10/06 11:49:28;;;;;;;6.97;1.33;;;16.10;99.90;;;;;;5078900;28;20092;-57
2022/10/06 11:52:06;;;;;;;7.90;1.27;;;16.20;99.90;;;;;;5079215;28;20439;-57
2022/10/06 11:54:47;;;;;;;7.30;1.45;;;16.10;99.90;;;;;;5078494;28;20041;-57
2022/10/06 11:57:22;;;;;;;8.27;1.40;;;16.10;99.90;;;;;;5079106;28;20071;-58
2022/10/06 12:00:15;;;;;;;9.63;1.67;;;16.10;99.90;;;;;;5067397;28;20045;-56
2022/10/06 12:02:42;;;;;;;10.05;1.45;;;16.10;99.90;;;;;;5057742;28;20561;-57
2022/10/06 12:05:13;;;;;;;7.57;1.23;;;16.10;99.90;;;;;;5058784;28;20124;-57
2022/10/06 12:07:51;;;;;;;10.60;1.90;;;16.10;99.90;;;;;;5058038;28;20072;-57
2022/10/06 12:10:26;;;;;;;7.03;1.00;;;16.10;99.90;;;;;;5058613;28;20136;-58
2022/10/06 12:12:54;;;;;;;7.47;1.40;;;16.20;99.90;;;;;;5040700;28;20057;-56
2022/10/06 12:15:40;;;;;;;8.63;1.23;;;16.10;99.90;;;;;;5059612;28;20041;-57
2022/10/06 12:18:12;;;;;;;9.90;1.40;;;16.10;99.90;;;;;;5079570;28;20080;-57
2022/10/06 12:21:07;;;;;;;11.43;1.38;;;16.00;99.90;;;;;;5079848;28;20048;-58
2022/10/06 12:23:48;;;;;;;9.30;1.17;;;16.00;99.90;;;;;;5082214;28;20119;-56
2022/10/06 12:26:27;;;;;;;7.95;1.33;;;16.10;99.90;;;;;;5080943;28;20051;-56
2022/10/06 12:28:56;;;;;;;8.10;1.17;;;16.10;99.90;;;;;;5081845;28;20565;-57
2022/10/06 12:31:49;;;;;;;7.88;1.33;;;16.10;99.90;;;;;;5082813;28;20032;-58
2022/10/06 12:34:40;;;;;;;8.43;1.20;;;16.20;99.90;;;;;;5080996;28;20059;-57
2022/10/06 12:37:27;;;;;;;8.07;1.33;;;16.20;99.90;;;;;;5077832;28;20044;-57
2022/10/06 12:40:31;;;;;;;7.40;1.20;;;16.20;99.90;;;;;;5079329;28;20044;-57
2022/10/06 12:43:09;;;;;;;7.97;1.48;;;16.20;99.90;;;;;;5080721;28;20048;-57
2022/10/06 12:45:36;;;;;;;6.00;1.52;;;16.20;99.90;;;;;;5077855;28;20096;-58
2022/10/06 12:48:05;;;;;;;5.38;1.02;;;16.10;99.90;;;;;;5081000;28;20504;-57
2022/10/06 12:50:30;;;;;;;8.05;1.40;;;16.10;99.90;;;;;;5081180;28;20100;-57
2022/10/06 12:53:04;;;;;;;9.68;1.70;;;16.10;99.90;;;;;;5080805;28;20049;-58
2022/10/06 12:55:48;;;;;;;9.48;1.15;;;16.10;99.90;;;;;;5081232;28;20040;-57
2022/10/06 12:58:29;;;;;;;7.63;1.25;;;16.10;99.90;;;;;;5080063;28;20070;-57
2022/10/06 13:01:13;;;;;;;6.93;1.40;;;16.10;99.90;;;;;;5081255;28;20037;-57
2022/10/06 13:03:39;;;;;;;9.20;1.55;;;16.00;99.90;;;;;;5080942;28;20041;-57
2022/10/06 13:06:08;;;;;;;6.68;1.77;;;15.90;99.90;;;;;;5081677;28;20056;-57
2022/10/06 13:08:38;;;;;;;8.00;1.17;;;16.00;99.90;;;;;;5081032;28;20256;-57
2022/10/06 13:11:16;;;;;;;10.15;1.98;;;16.10;99.90;;;;;;5080538;28;20033;-57
2022/10/06 13:13:50;;;;;;;8.27;1.48;;;16.20;99.90;;;;;;5081534;28;20040;-57
2022/10/06 13:16:22;;;;;;;8.57;1.80;;;16.10;99.90;;;;;;5080859;28;20055;-57